Impacts METAR Board
IDs:

KAPF - Naples Muni, FL, US

Updated at: 2300 UTC 30 Jun 2022
Potential Impact None Slight Moderate High
Time 30/11Z 30/12Z 30/13Z 30/14Z 30/15Z 30/16Z 30/17Z 30/18Z 30/19Z 30/20Z 30/21Z 30/22Z 30/23Z
Temp78 81 84 86 88 91 87 89 89 89 85 79 78
Dewpt73 74 75 73 73 73 74 75 74 78 73 72
Altim30.10 30.10 30.12 30.12 30.13 30.12 30.11 30.09 30.08 30.07 30.07 30.06 30.08
VIS10 10 10 10 10 10 10 10 10 10 10 10 10
CIG-- -- -- -- -- -- 50 -- -- -- 44 -- --
CoverCLRCLRCLRCLRSCTCLRBKNCLRSCTSCTOVCFEWCLR
FltCatVFRVFRVFRVFRVFRVFRVFRVFRVFRVFRVFRVFRVFR
WX----------------VCTSVCTS------
WDir100701401401100240270290350120110100
WSpd3 3 4 4 6 6 7 6 7 4 9 10 8
WGst-- -- -- -- -- -- -- -- -- -- 19 -- --
Raw hourly METARs
KAPF 301053Z 10003KT 10SM CLR 26/23 A3010 RMK AO2 SLP190 T02560228 $
KAPF 301153Z 07003KT 10SM CLR 27/23 A3010 RMK AO2 SLP192 T02720233 10272 20256 53003
KAPF 301253Z 14004KT 10SM CLR 29/24 A3012 RMK AO2 SLP198 T02890239
KAPF 301353Z 14004KT 10SM CLR 30/23 A3012 RMK AO2 SLP200 T03000228
KAPF 301453Z 11006KT 10SM SCT034 31/23 A3013 RMK AO2 SLP200 T03110228 51008
KAPF 301553Z VRB06KT 10SM CLR 33/23 A3012 RMK AO2 SLP198 T03280228
KAPF 301653Z 24007KT 10SM FEW041 BKN050 BKN065 31/23 A3011 RMK AO2 SLP194 T03060233
KAPF 301753Z 27006KT 10SM CLR 32/24 A3009 RMK AO2 SLP187 T03170239 10333 20272 58013
KAPF 301905Z 29007KT 10SM VCTS FEW048 FEW060 SCT090 32/23 A3008 RMK AO2 LTG DSNT E T03170233
KAPF 302004Z 35004KT 10SM VCTS SCT038 SCT049 32/ A3007 RMK AO2 LTG DSNT NE-SE TSE1958 T0317 $
KAPF 302053Z 12009G19KT 10SM SCT037 BKN044 OVC100 29/26 A3007 RMK AO2 LTG DSNT NW-E TSE1958 SLP180 60009 T02940256 55007 $
KAPF 302153Z 11010KT 10SM FEW050 26/23 A3006 RMK AO2 LTG DSNT N AND NW RAB04E15 SLP179 P0000 T02610228
KAPF 302253Z 10008KT 10SM CLR 26/22 A3008 RMK AO2 LTG DSNT SW SLP183 T02560222



Page loaded:  23:33 UTC  |   04:33 PM Pacific  |   05:33 PM Mountain  |   06:33 PM Central  |   07:33 PM Eastern

 

ADVISORIES

FORECASTS

FORECASTS

OBSERVATIONS

USER TOOLS

ABOUT US